Sparta, North Carolina
Current Conditions -  °F | °C
As of 1:35 AM on Friday 31 Oct 2014 (Local Time) from KGEV Reporting Station
Clear Clear  
Wind Chill: 40°   Ceiling: Unl
Heat Index: 40°   Visibility: 10mi
Dew Point: 33°   Wind: 0mph
Humidity: 74%   Direction: NA
Pressure: 29.99"   Gusts: NA
Location:  36.51°N, 81.12°W
Report Text: KGEV 310535Z AUTO 00000KT 10SM CLR 05/01 A2999 RMK AO2 T00470005
Loading
Personal Weather Stations






























Interactive Weather Map
Tropical Storm Tracking
New forecast layout! Learn more

10-Day Weather Forecast

Advertisements
Track Severe Weather on mobile